Time,TemperatureF,DewpointF,PressureIn,WindDirection,WindDirectionDegrees,WindSpeedMPH,WindSpeedGustMPH,Humidity,HourlyPrecipIn,Conditions,Clouds,dailyrainin,SoftwareType,DateUTC
2017-03-29 00:01:00,70.7,61.6,29.65,North,-9999,-999.9,0.0,73,0.00,,,0.00,WUHU21623XXSP,2017-03-29 05:01:00,
2017-03-29 00:03:00,70.7,61.6,29.65,North,-9999,-999.9,0.0,73,0.00,,,0.00,WUHU21623XXSP,2017-03-29 05:03:00,
2017-03-29 00:05:00,70.7,61.6,29.65,North,-9999,-999.9,0.0,73,0.00,,,0.00,WUHU21623XXSP,2017-03-29 05:05:00,
2017-03-29 00:07:00,70.5,61.4,29.65,North,-9999,-999.9,0.0,73,0.00,,,0.00,WUHU21623XXSP,2017-03-29 05:07:00,
2017-03-29 00:09:00,70.7,61.4,29.66,North,-9999,-999.9,0.0,73,0.00,,,0.00,WUHU21623XXSP,2017-03-29 05:09:00,
2017-03-29 00:12:00,70.7,61.6,29.68,North,-9999,-999.9,0.0,73,0.00,,,0.00,WUHU21623XXSP,2017-03-29 05:12:00,
2017-03-29 00:14:00,70.5,61.6,29.68,North,-9999,-999.9,0.0,73,0.00,,,0.00,WUHU21623XXSP,2017-03-29 05:14:00,
2017-03-29 00:16:00,70.5,61.8,29.68,North,-9999,-999.9,0.0,74,0.00,,,0.00,WUHU21623XXSP,2017-03-29 05:16:00,
2017-03-29 00:18:00,70.7,62.0,29.67,North,-9999,-999.9,0.0,74,0.00,,,0.00,WUHU21623XXSP,2017-03-29 05:18:00,
2017-03-29 00:20:00,70.7,62.0,29.67,North,-9999,-999.9,0.0,74,0.00,,,0.00,WUHU21623XXSP,2017-03-29 05:20:00,
2017-03-29 00:22:00,70.7,62.0,29.68,North,-9999,-999.9,0.0,74,0.00,,,0.00,WUHU21623XXSP,2017-03-29 05:22:00,
2017-03-29 00:24:00,70.7,62.0,29.69,North,-9999,-999.9,0.0,74,0.00,,,0.00,WUHU21623XXSP,2017-03-29 05:24:00,
2017-03-29 00:27:00,70.5,62.0,29.71,North,-9999,-999.9,0.0,74,0.00,,,0.00,WUHU21623XXSP,2017-03-29 05:27:00,
2017-03-29 00:29:00,70.5,61.8,29.72,North,-9999,-999.9,0.0,74,0.00,,,0.00,WUHU21623XXSP,2017-03-29 05:29:00,
2017-03-29 00:31:00,70.5,61.8,29.72,North,-9999,-999.9,0.0,74,0.00,,,0.00,WUHU21623XXSP,2017-03-29 05:31:00,
2017-03-29 00:33:00,70.7,62.0,29.72,North,-9999,-999.9,0.0,74,0.00,,,0.00,WUHU21623XXSP,2017-03-29 05:33:00,
2017-03-29 00:35:00,70.7,62.0,29.72,North,-9999,-999.9,0.0,74,0.00,,,0.00,WUHU21623XXSP,2017-03-29 05:35:00,
2017-03-29 00:37:00,70.5,61.8,29.73,North,-9999,-999.9,0.0,74,0.00,,,0.00,WUHU21623XXSP,2017-03-29 05:37:00,
2017-03-29 00:39:00,70.5,61.8,29.72,North,-9999,-999.9,0.0,74,0.00,,,0.00,WUHU21623XXSP,2017-03-29 05:39:00,
2017-03-29 00:42:00,70.5,61.8,29.72,North,-9999,-999.9,0.0,74,0.00,,,0.00,WUHU21623XXSP,2017-03-29 05:42:00,
2017-03-29 00:44:00,70.7,62.0,29.72,North,-9999,-999.9,0.0,74,0.00,,,0.00,WUHU21623XXSP,2017-03-29 05:44:00,
2017-03-29 00:46:00,70.7,62.0,29.72,North,-9999,-999.9,0.0,74,0.00,,,0.00,WUHU21623XXSP,2017-03-29 05:46:00,
2017-03-29 01:12:00,63.1,55.8,29.78,North,-9999,-999.9,0.0,77,0.00,,,0.00,WUHU21623XXSP,2017-03-29 06:12:00,
2017-03-29 01:14:00,62.2,55.3,29.79,North,-9999,-999.9,0.0,78,0.00,,,0.00,WUHU21623XXSP,2017-03-29 06:14:00,
2017-03-29 01:16:00,61.5,55.0,29.80,North,-9999,-999.9,0.0,79,0.00,,,0.00,WUHU21623XXSP,2017-03-29 06:16:00,
2017-03-29 01:21:00,61.0,55.0,29.82,North,-9999,-999.9,0.0,80,0.00,,,0.00,WUHU21623XXSP,2017-03-29 06:21:00,
2017-03-29 01:26:00,59.9,54.1,29.80,North,-9999,-999.9,0.0,81,0.00,,,0.00,WUHU21623XXSP,2017-03-29 06:26:00,
2017-03-29 01:31:00,59.5,54.1,29.82,North,-9999,-999.9,0.0,82,0.00,,,0.00,WUHU21623XXSP,2017-03-29 06:31:00,
2017-03-29 01:36:00,58.6,53.7,29.79,North,-9999,-999.9,0.0,83,0.00,,,0.00,WUHU21623XXSP,2017-03-29 06:36:00,
2017-03-29 01:41:00,58.3,53.5,29.80,North,-9999,-999.9,0.0,84,0.00,,,0.00,WUHU21623XXSP,2017-03-29 06:41:00,
2017-03-29 01:44:00,58.1,53.3,29.81,North,-9999,-999.9,0.0,84,0.00,,,0.00,WUHU21623XXSP,2017-03-29 06:44:00,
2017-03-29 01:51:00,57.9,53.4,29.81,North,-9999,-999.9,0.0,85,0.00,,,0.00,WUHU21623XXSP,2017-03-29 06:51:00,
2017-03-29 01:56:00,57.9,53.4,29.82,North,-9999,-999.9,0.0,85,0.00,,,0.00,WUHU21623XXSP,2017-03-29 06:56:00,
2017-03-29 02:01:00,57.9,53.4,29.82,North,-9999,-999.9,0.0,85,0.00,,,0.00,WUHU21623XXSP,2017-03-29 07:01:00,
2017-03-29 02:06:00,57.9,53.7,29.82,North,-9999,-999.9,0.0,86,0.00,,,0.00,WUHU21623XXSP,2017-03-29 07:06:00,
2017-03-29 02:11:00,57.7,53.6,29.82,North,-9999,-999.9,0.0,86,0.00,,,0.00,WUHU21623XXSP,2017-03-29 07:11:00,
2017-03-29 02:21:00,57.7,53.6,29.81,North,-9999,-999.9,0.0,86,0.00,,,0.00,WUHU21623XXSP,2017-03-29 07:21:00,
2017-03-29 02:26:00,57.7,53.6,29.79,North,-9999,-999.9,0.0,86,0.00,,,0.00,WUHU21623XXSP,2017-03-29 07:26:00,
2017-03-29 02:31:00,57.7,53.9,29.78,North,-9999,-999.9,0.0,87,0.00,,,0.00,WUHU21623XXSP,2017-03-29 07:31:00,
2017-03-29 02:41:00,57.6,53.9,29.78,North,-9999,-999.9,0.0,87,0.00,,,0.00,WUHU21623XXSP,2017-03-29 07:41:00,
2017-03-29 02:46:00,57.4,53.5,29.77,North,-9999,-999.9,0.0,87,0.00,,,0.00,WUHU21623XXSP,2017-03-29 07:46:00,
2017-03-29 02:51:00,57.4,53.5,29.77,North,-9999,-999.9,0.0,87,0.00,,,0.00,WUHU21623XXSP,2017-03-29 07:51:00,
2017-03-29 02:56:00,57.4,53.5,29.76,North,-9999,-999.9,0.0,87,0.00,,,0.00,WUHU21623XXSP,2017-03-29 07:56:00,
2017-03-29 03:01:00,57.4,53.5,29.75,North,-9999,-999.9,0.0,87,0.00,,,0.00,WUHU21623XXSP,2017-03-29 08:01:00,
2017-03-29 03:11:00,57.4,53.5,29.76,North,-9999,-999.9,0.0,87,0.00,,,0.00,WUHU21623XXSP,2017-03-29 08:11:00,
2017-03-29 03:16:00,57.0,53.5,29.68,North,-9999,-999.9,0.0,88,0.00,,,0.00,WUHU21623XXSP,2017-03-29 08:16:00,
2017-03-29 03:21:00,57.0,53.5,29.65,North,-9999,-999.9,0.0,88,0.00,,,0.00,WUHU21623XXSP,2017-03-29 08:21:00,
2017-03-29 03:26:00,57.0,53.5,29.67,North,-9999,-999.9,0.0,88,0.00,,,0.00,WUHU21623XXSP,2017-03-29 08:26:00,
2017-03-29 03:31:00,57.0,53.5,29.67,North,-9999,-999.9,0.0,88,0.00,,,0.00,WUHU21623XXSP,2017-03-29 08:31:00,
2017-03-29 03:41:00,56.8,53.5,29.71,North,-9999,-999.9,0.0,88,0.00,,,0.00,WUHU21623XXSP,2017-03-29 08:41:00,
2017-03-29 03:46:00,57.0,53.5,29.70,North,-9999,-999.9,0.0,88,0.00,,,0.00,WUHU21623XXSP,2017-03-29 08:46:00,
2017-03-29 03:51:00,57.0,53.5,29.70,North,-9999,-999.9,0.0,88,0.00,,,0.00,WUHU21623XXSP,2017-03-29 08:51:00,
2017-03-29 03:56:00,57.0,53.5,29.70,North,-9999,-999.9,0.0,88,0.00,,,0.00,WUHU21623XXSP,2017-03-29 08:56:00,
2017-03-29 04:01:00,57.0,53.5,29.71,North,-9999,-999.9,0.0,88,0.00,,,0.00,WUHU21623XXSP,2017-03-29 09:01:00,
2017-03-29 04:11:00,57.0,53.8,29.71,North,-9999,-999.9,0.0,89,0.00,,,0.00,WUHU21623XXSP,2017-03-29 09:11:00,
2017-03-29 04:16:00,57.0,53.8,29.71,North,-9999,-999.9,0.0,89,0.00,,,0.00,WUHU21623XXSP,2017-03-29 09:16:00,
2017-03-29 04:22:00,57.0,53.8,29.71,North,-9999,-999.9,0.0,89,0.00,,,0.00,WUHU21623XXSP,2017-03-29 09:22:00,
2017-03-29 04:27:00,57.0,53.5,29.71,North,-9999,-999.9,0.0,88,0.00,,,0.00,WUHU21623XXSP,2017-03-29 09:27:00,
2017-03-29 04:32:00,57.0,53.8,29.70,North,-9999,-999.9,0.0,89,0.00,,,0.00,WUHU21623XXSP,2017-03-29 09:32:00,
2017-03-29 04:42:00,57.0,53.5,29.69,North,-9999,-999.9,0.0,88,0.00,,,0.00,WUHU21623XXSP,2017-03-29 09:42:00,
2017-03-29 04:47:00,56.8,53.3,29.71,North,-9999,-999.9,0.0,88,0.00,,,0.00,WUHU21623XXSP,2017-03-29 09:47:00,
2017-03-29 04:52:00,56.8,53.3,29.70,North,-9999,-999.9,0.0,88,0.00,,,0.00,WUHU21623XXSP,2017-03-29 09:52:00,
2017-03-29 04:57:00,56.8,53.3,29.71,North,-9999,-999.9,0.0,88,0.00,,,0.00,WUHU21623XXSP,2017-03-29 09:57:00,
2017-03-29 05:02:00,56.8,53.3,29.70,North,-9999,-999.9,0.0,88,0.00,,,0.00,WUHU21623XXSP,2017-03-29 10:02:00,
2017-03-29 05:12:00,56.8,53.3,29.72,North,-9999,-999.9,0.0,88,0.00,,,0.00,WUHU21623XXSP,2017-03-29 10:12:00,
2017-03-29 05:17:00,56.8,53.3,29.73,North,-9999,-999.9,0.0,88,0.00,,,0.00,WUHU21623XXSP,2017-03-29 10:17:00,
2017-03-29 05:22:00,56.7,53.2,29.78,North,-9999,-999.9,0.0,88,0.00,,,0.00,WUHU21623XXSP,2017-03-29 10:22:00,
2017-03-29 05:27:00,56.5,53.3,29.72,North,-9999,-999.9,0.0,89,0.00,,,0.00,WUHU21623XXSP,2017-03-29 10:27:00,
2017-03-29 05:32:00,56.3,53.1,29.72,North,-9999,-999.9,0.0,89,0.00,,,0.00,WUHU21623XXSP,2017-03-29 10:32:00,
2017-03-29 05:42:00,56.3,53.1,29.72,North,-9999,-999.9,0.0,89,0.00,,,0.00,WUHU21623XXSP,2017-03-29 10:42:00,
2017-03-29 05:47:00,56.1,52.9,29.72,North,-9999,-999.9,0.0,89,0.00,,,0.00,WUHU21623XXSP,2017-03-29 10:47:00,
2017-03-29 05:52:00,56.1,52.9,29.72,North,-9999,-999.9,0.0,89,0.00,,,0.00,WUHU21623XXSP,2017-03-29 10:52:00,
2017-03-29 05:57:00,55.9,52.7,29.72,North,-9999,-999.9,0.0,89,0.00,,,0.00,WUHU21623XXSP,2017-03-29 10:57:00,
2017-03-29 06:02:00,55.9,52.7,29.72,North,-9999,-999.9,0.0,89,0.00,,,0.00,WUHU21623XXSP,2017-03-29 11:02:00,
2017-03-29 06:12:00,55.8,52.6,29.71,North,-9999,-999.9,0.0,89,0.00,,,0.00,WUHU21623XXSP,2017-03-29 11:12:00,
2017-03-29 06:17:00,55.6,52.4,29.70,North,-9999,-999.9,0.0,89,0.00,,,0.00,WUHU21623XXSP,2017-03-29 11:17:00,
2017-03-29 06:22:00,55.6,52.4,29.70,North,-9999,-999.9,0.0,89,0.00,,,0.00,WUHU21623XXSP,2017-03-29 11:22:00,
2017-03-29 06:27:00,55.4,52.2,29.70,North,-9999,-999.9,0.0,89,0.00,,,0.00,WUHU21623XXSP,2017-03-29 11:27:00,
2017-03-29 06:32:00,55.2,52.0,29.71,North,-9999,-999.9,0.0,89,0.00,,,0.00,WUHU21623XXSP,2017-03-29 11:32:00,
2017-03-29 06:42:00,55.0,51.8,29.71,North,-9999,-999.9,0.0,89,0.00,,,0.00,WUHU21623XXSP,2017-03-29 11:42:00,
2017-03-29 06:47:00,54.7,51.5,29.72,North,-9999,-999.9,0.0,89,0.00,,,0.00,WUHU21623XXSP,2017-03-29 11:47:00,
2017-03-29 06:52:00,54.5,51.3,29.72,North,-9999,-999.9,0.0,89,0.00,,,0.00,WUHU21623XXSP,2017-03-29 11:52:00,
2017-03-29 06:57:00,54.3,51.1,29.72,North,-9999,-999.9,0.0,89,0.00,,,0.00,WUHU21623XXSP,2017-03-29 11:57:00,
2017-03-29 07:02:00,54.3,51.1,29.74,North,-9999,-999.9,0.0,89,0.00,,,0.00,WUHU21623XXSP,2017-03-29 12:02:00,
2017-03-29 07:13:00,54.1,50.9,29.72,North,-9999,-999.9,0.0,89,0.00,,,0.00,WUHU21623XXSP,2017-03-29 12:13:00,
2017-03-29 07:18:00,54.0,50.8,29.72,North,-9999,-999.9,0.0,89,0.00,,,0.00,WUHU21623XXSP,2017-03-29 12:18:00,
2017-03-29 07:23:00,53.8,50.6,29.72,North,-9999,-999.9,0.0,89,0.00,,,0.00,WUHU21623XXSP,2017-03-29 12:23:00,